Time,TemperatureF,DewpointF,PressureIn,WindDirection,WindDirectionDegrees,WindSpeedMPH,WindSpeedGustMPH,Humidity,HourlyPrecipIn,Conditions,Clouds,dailyrainin,SoftwareType,DateUTC
2013-09-11 00:00:00,65.5,56.6,29.96,WSW,248,1.6,1.6,73,0.00,,,0.00,WUHU216HW,2013-09-11 05:00:00,
2013-09-11 00:05:00,65.5,56.6,29.96,SW,225,1.1,1.6,73,0.00,,,0.00,WUHU216HW,2013-09-11 05:05:00,
2013-09-11 00:10:00,65.5,56.6,29.96,SW,225,1.1,1.1,73,0.00,,,0.00,WUHU216HW,2013-09-11 05:10:00,
2013-09-11 00:30:00,64.6,56.2,29.96,SE,135,1.6,1.6,74,0.00,,,0.00,WUHU216HW,2013-09-11 05:30:00,
2013-09-11 00:31:00,64.6,56.2,29.96,SSW,203,1.6,1.6,74,0.00,,,0.00,WUHU216HW,2013-09-11 05:31:00,
2013-09-11 00:35:00,64.6,56.2,29.96,SSW,203,1.6,1.6,74,0.00,,,0.00,WUHU216HW,2013-09-11 05:35:00,
2013-09-11 00:36:00,64.6,56.2,29.96,SSW,203,1.6,1.6,74,0.00,,,0.00,WUHU216HW,2013-09-11 05:36:00,
2013-09-11 00:40:00,64.6,56.2,29.96,SSW,203,1.6,1.6,74,0.00,,,0.00,WUHU216HW,2013-09-11 05:40:00,
2013-09-11 01:00:00,63.2,55.1,29.96,SSE,158,0.9,0.9,75,0.00,,,0.00,WUHU216HW,2013-09-11 06:00:00,
2013-09-11 01:01:00,63.2,55.1,29.96,SSE,158,0.9,0.9,75,0.00,,,0.00,WUHU216HW,2013-09-11 06:01:00,
2013-09-11 01:05:00,63.2,55.1,29.96,SSE,158,0.9,0.9,75,0.00,,,0.00,WUHU216HW,2013-09-11 06:05:00,
2013-09-11 01:06:00,63.2,55.1,29.96,SSE,158,0.9,0.9,75,0.00,,,0.00,WUHU216HW,2013-09-11 06:06:00,
2013-09-11 01:10:00,63.2,55.1,29.96,SSE,158,0.9,0.9,75,0.00,,,0.00,WUHU216HW,2013-09-11 06:10:00,
2013-09-11 01:30:00,62.6,54.9,29.96,SSW,203,0.4,0.4,76,0.00,,,0.00,WUHU216HW,2013-09-11 06:30:00,
2013-09-11 01:31:00,62.6,54.9,29.96,South,180,1.8,1.8,76,0.00,,,0.00,WUHU216HW,2013-09-11 06:31:00,
2013-09-11 01:35:00,62.6,54.9,29.96,South,180,1.8,1.8,76,0.00,,,0.00,WUHU216HW,2013-09-11 06:35:00,
2013-09-11 01:36:00,62.6,54.9,29.96,South,180,1.8,1.8,76,0.00,,,0.00,WUHU216HW,2013-09-11 06:36:00,
2013-09-11 01:40:00,62.6,54.9,29.96,South,180,1.8,1.8,76,0.00,,,0.00,WUHU216HW,2013-09-11 06:40:00,
2013-09-11 02:00:00,63.0,55.6,29.96,SW,225,1.3,1.3,77,0.00,,,0.00,WUHU216HW,2013-09-11 07:00:00,
2013-09-11 02:01:00,63.0,55.6,29.96,SSW,203,1.8,1.8,77,0.00,,,0.00,WUHU216HW,2013-09-11 07:01:00,
2013-09-11 02:05:00,63.0,55.6,29.96,SSW,203,1.8,1.8,77,0.00,,,0.00,WUHU216HW,2013-09-11 07:05:00,
2013-09-11 02:06:00,63.0,55.6,29.96,SSW,203,1.8,1.8,77,0.00,,,0.00,WUHU216HW,2013-09-11 07:06:00,
2013-09-11 02:10:00,63.0,55.6,29.96,SSW,203,1.8,1.8,77,0.00,,,0.00,WUHU216HW,2013-09-11 07:10:00,
2013-09-11 02:30:00,62.6,55.3,29.97,SW,225,0.7,0.7,77,0.00,,,0.00,WUHU216HW,2013-09-11 07:30:00,
2013-09-11 02:35:00,62.6,55.3,29.97,SW,225,0.4,0.7,77,0.00,,,0.00,WUHU216HW,2013-09-11 07:35:00,
2013-09-11 02:36:00,62.6,55.3,29.97,SW,225,0.4,0.7,77,0.00,,,0.00,WUHU216HW,2013-09-11 07:36:00,
2013-09-11 02:40:00,62.6,55.3,29.97,SW,225,0.4,0.7,77,0.00,,,0.00,WUHU216HW,2013-09-11 07:40:00,
2013-09-11 03:00:00,62.5,55.4,29.97,SSW,203,1.6,1.6,78,0.00,,,0.00,WUHU216HW,2013-09-11 08:00:00,
2013-09-11 03:05:00,62.5,55.4,29.97,WSW,248,1.1,1.6,78,0.00,,,0.00,WUHU216HW,2013-09-11 08:05:00,
2013-09-11 03:10:00,62.5,55.4,29.97,WSW,248,1.1,1.6,78,0.00,,,0.00,WUHU216HW,2013-09-11 08:10:00,
2013-09-11 03:30:00,62.3,55.3,29.97,SW,225,2.7,2.7,78,0.00,,,0.00,WUHU216HW,2013-09-11 08:30:00,
2013-09-11 03:31:00,62.3,55.3,29.97,SSW,211,2.6,2.7,78,0.00,,,0.00,WUHU216HW,2013-09-11 08:31:00,
2013-09-11 03:35:00,62.3,55.3,29.97,South,180,2.5,2.7,78,0.00,,,0.00,WUHU216HW,2013-09-11 08:35:00,
2013-09-11 03:36:00,62.3,55.3,29.97,South,180,2.5,2.7,78,0.00,,,0.00,WUHU216HW,2013-09-11 08:36:00,
2013-09-11 04:00:00,62.3,55.3,29.97,SW,225,0.9,0.9,78,0.00,,,0.00,WUHU216HW,2013-09-11 09:00:00,
2013-09-11 04:05:00,62.3,55.3,29.96,SW,225,0.9,0.9,78,0.00,,,0.00,WUHU216HW,2013-09-11 09:05:00,
2013-09-11 04:06:00,62.3,55.3,29.96,SW,225,0.9,0.9,78,0.00,,,0.00,WUHU216HW,2013-09-11 09:06:00,
2013-09-11 04:10:00,62.3,55.3,29.96,SW,225,0.9,0.9,78,0.00,,,0.00,WUHU216HW,2013-09-11 09:10:00,
2013-09-11 04:30:00,61.9,55.4,29.96,WSW,248,0.2,0.2,79,0.00,,,0.00,WUHU216HW,2013-09-11 09:30:00,
2013-09-11 04:31:00,61.9,55.4,29.96,WSW,248,0.9,0.9,79,0.00,,,0.00,WUHU216HW,2013-09-11 09:31:00,
2013-09-11 04:35:00,61.9,55.4,29.96,WSW,248,0.9,0.9,79,0.00,,,0.00,WUHU216HW,2013-09-11 09:35:00,
2013-09-11 04:36:00,61.9,55.4,29.96,WSW,248,0.9,0.9,79,0.00,,,0.00,WUHU216HW,2013-09-11 09:36:00,
2013-09-11 04:37:00,61.9,55.4,29.96,WSW,248,0.9,0.9,79,0.00,,,0.00,WUHU216HW,2013-09-11 09:37:00,
2013-09-11 05:00:00,61.6,55.0,29.97,SSW,203,1.8,1.8,79,0.00,,,0.00,WUHU216HW,2013-09-11 10:00:00,
2013-09-11 05:01:00,61.6,55.0,29.97,SSW,203,1.3,1.8,79,0.00,,,0.00,WUHU216HW,2013-09-11 10:01:00,
2013-09-11 05:05:00,61.6,55.0,29.97,SSW,203,1.1,1.8,79,0.00,,,0.00,WUHU216HW,2013-09-11 10:05:00,
2013-09-11 05:06:00,61.6,55.0,29.97,SSW,203,1.1,1.8,79,0.00,,,0.00,WUHU216HW,2013-09-11 10:06:00,
2013-09-11 05:10:00,61.6,55.0,29.97,SSW,203,1.1,1.1,79,0.00,,,0.00,WUHU216HW,2013-09-11 10:10:00,
2013-09-11 05:30:00,62.1,55.9,29.97,SW,225,1.1,1.1,80,0.00,,,0.00,WUHU216HW,2013-09-11 10:30:00,
2013-09-11 05:31:00,62.1,55.9,29.97,SW,225,0.9,1.1,80,0.00,,,0.00,WUHU216HW,2013-09-11 10:31:00,
2013-09-11 05:35:00,62.1,55.9,29.97,SW,225,0.4,1.1,80,0.00,,,0.00,WUHU216HW,2013-09-11 10:35:00,
2013-09-11 05:36:00,62.1,55.9,29.97,SW,225,0.4,1.1,80,0.00,,,0.00,WUHU216HW,2013-09-11 10:36:00,
2013-09-11 05:37:00,62.1,55.9,29.97,SW,225,0.4,1.1,80,0.00,,,0.00,WUHU216HW,2013-09-11 10:37:00,
2013-09-11 05:40:00,62.1,55.9,29.97,SW,225,0.4,0.4,80,0.00,,,0.00,WUHU216HW,2013-09-11 10:40:00,
2013-09-11 06:00:00,62.3,56.0,29.96,SSE,158,1.6,1.6,80,0.00,,,0.00,WUHU216HW,2013-09-11 11:00:00,
2013-09-11 06:05:00,62.3,56.0,29.96,SSE,158,3.6,3.6,80,0.00,,,0.00,WUHU216HW,2013-09-11 11:05:00,
2013-09-11 06:07:00,62.3,56.0,29.96,SSE,158,3.6,3.6,80,0.00,,,0.00,WUHU216HW,2013-09-11 11:07:00,
2013-09-11 06:30:00,61.9,55.7,29.97,SSE,158,1.3,1.3,80,0.00,,,0.00,WUHU216HW,2013-09-11 11:30:00,
2013-09-11 06:31:00,61.7,55.5,29.97,South,180,3.1,3.1,80,0.00,,,0.00,WUHU216HW,2013-09-11 11:31:00,
2013-09-11 06:35:00,61.7,55.5,29.97,South,180,3.1,3.1,80,0.00,,,0.00,WUHU216HW,2013-09-11 11:35:00,
2013-09-11 06:36:00,61.7,55.5,29.97,South,180,3.1,3.1,80,0.00,,,0.00,WUHU216HW,2013-09-11 11:36:00,
2013-09-11 06:37:00,61.7,55.5,29.97,South,180,3.1,3.1,80,0.00,,,0.00,WUHU216HW,2013-09-11 11:37:00,
2013-09-11 06:40:00,61.7,55.5,29.97,South,180,3.1,3.1,80,0.00,,,0.00,WUHU216HW,2013-09-11 11:40:00,
2013-09-11 07:00:00,61.9,55.7,29.97,SSW,203,1.8,1.8,80,0.00,,,0.00,WUHU216HW,2013-09-11 12:00:00,
2013-09-11 07:05:00,61.9,55.7,29.97,WSW,248,1.3,1.8,80,0.00,,,0.00,WUHU216HW,2013-09-11 12:05:00,
2013-09-11 07:10:00,61.9,55.7,29.97,WSW,248,1.3,1.3,80,0.00,,,0.00,WUHU216HW,2013-09-11 12:10:00,
2013-09-11 07:30:00,63.9,57.2,29.97,WSW,248,2.0,2.0,79,0.00,,,0.00,WUHU216HW,2013-09-11 12:30:00,
2013-09-11 07:31:00,63.9,57.2,29.97,SSE,158,2.9,2.9,79,0.00,,,0.00,WUHU216HW,2013-09-11 12:31:00,
2013-09-11 07:35:00,63.9,57.2,29.97,SSE,158,2.9,2.9,79,0.00,,,0.00,WUHU216HW,2013-09-11 12:35:00,
2013-09-11 07:36:00,63.9,57.2,29.97,SSE,158,2.9,2.9,79,0.00,,,0.00,WUHU216HW,2013-09-11 12:36:00,
2013-09-11 07:40:00,63.9,57.2,29.97,SSE,158,2.9,2.9,79,0.00,,,0.00,WUHU216HW,2013-09-11 12:40:00,
2013-09-11 08:00:00,65.9,57.7,29.97,West,270,3.4,3.4,75,0.00,,,0.00,WUHU216HW,2013-09-11 13:00:00,
2013-09-11 08:01:00,65.9,57.7,29.97,SW,225,5.6,5.6,75,0.00,,,0.00,WUHU216HW,2013-09-11 13:01:00,
2013-09-11 08:05:00,65.9,57.7,29.97,SW,225,5.6,5.6,75,0.00,,,0.00,WUHU216HW,2013-09-11 13:05:00,
2013-09-11 08:06:00,65.9,57.7,29.97,SW,225,5.6,5.6,75,0.00,,,0.00,WUHU216HW,2013-09-11 13:06:00,
2013-09-11 08:10:00,65.9,57.7,29.97,SW,225,5.6,5.6,75,0.00,,,0.00,WUHU216HW,2013-09-11 13:10:00,
2013-09-11 08:30:00,66.4,58.2,29.97,WSW,248,2.9,2.9,75,0.00,,,0.00,WUHU216HW,2013-09-11 13:30:00,
2013-09-11 08:31:00,66.4,58.2,29.97,WSW,248,4.0,4.0,75,0.00,,,0.00,WUHU216HW,2013-09-11 13:31:00,
2013-09-11 08:35:00,66.4,58.2,29.97,WSW,248,4.0,4.0,75,0.00,,,0.00,WUHU216HW,2013-09-11 13:35:00,
2013-09-11 08:36:00,66.4,58.2,29.97,WSW,248,4.0,4.0,75,0.00,,,0.00,WUHU216HW,2013-09-11 13:36:00,
2013-09-11 08:40:00,66.4,58.2,29.97,WSW,248,4.0,4.0,75,0.00,,,0.00,WUHU216HW,2013-09-11 13:40:00,
2013-09-11 09:00:00,68.4,59.0,29.97,SSW,203,6.9,6.9,72,0.00,,,0.00,WUHU216HW,2013-09-11 14:00:00,
2013-09-11 09:01:00,68.6,59.2,29.97,West,270,7.6,7.6,72,0.00,,,0.00,WUHU216HW,2013-09-11 14:01:00,
2013-09-11 09:05:00,68.6,59.2,29.97,West,270,7.6,7.6,72,0.00,,,0.00,WUHU216HW,2013-09-11 14:05:00,
2013-09-11 09:06:00,68.6,59.2,29.97,West,270,7.6,7.6,72,0.00,,,0.00,WUHU216HW,2013-09-11 14:06:00,
2013-09-11 09:10:00,68.6,59.2,29.97,West,270,7.6,7.6,72,0.00,,,0.00,WUHU216HW,2013-09-11 14:10:00,
2013-09-11 09:30:00,70.9,60.2,29.97,West,270,5.8,5.8,69,0.00,,,0.00,WUHU216HW,2013-09-11 14:30:00,
2013-09-11 09:35:00,70.9,60.2,29.97,West,270,5.8,5.8,69,0.00,,,0.00,WUHU216HW,2013-09-11 14:35:00,
2013-09-11 09:36:00,70.9,60.2,29.97,West,270,5.8,5.8,69,0.00,,,0.00,WUHU216HW,2013-09-11 14:36:00,
2013-09-11 09:40:00,70.9,60.2,29.97,West,270,5.8,5.8,69,0.00,,,0.00,WUHU216HW,2013-09-11 14:40:00,
2013-09-11 10:00:00,73.1,61.0,29.97,SSW,203,2.7,2.7,66,0.00,,,0.00,WUHU216HW,2013-09-11 15:00:00,
2013-09-11 10:05:00,73.1,61.0,29.97,SSW,203,2.7,2.7,66,0.00,,,0.00,WUHU216HW,2013-09-11 15:05:00,
2013-09-11 10:06:00,73.1,61.0,29.97,SSW,203,2.7,2.7,66,0.00,,,0.00,WUHU216HW,2013-09-11 15:06:00,
2013-09-11 10:30:00,74.9,61.5,29.97,West,270,4.9,4.9,63,0.00,,,0.00,WUHU216HW,2013-09-11 15:30:00,
2013-09-11 10:31:00,75.1,61.2,29.97,WSW,248,8.1,8.1,62,0.00,,,0.00,WUHU216HW,2013-09-11 15:31:00,
2013-09-11 10:35:00,75.1,61.2,29.97,WSW,248,8.1,8.1,62,0.00,,,0.00,WUHU216HW,2013-09-11 15:35:00,
2013-09-11 10:36:00,75.1,61.2,29.97,WSW,248,8.1,8.1,62,0.00,,,0.00,WUHU216HW,2013-09-11 15:36:00,
2013-09-11 10:40:00,75.1,61.2,29.97,WSW,248,8.1,8.1,62,0.00,,,0.00,WUHU216HW,2013-09-11 15:40:00,
2013-09-11 11:00:00,76.9,61.5,29.97,WSW,248,6.9,6.9,59,0.00,,,0.00,WUHU216HW,2013-09-11 16:00:00,
2013-09-11 11:01:00,76.9,61.5,29.97,West,270,9.2,9.2,59,0.00,,,0.00,WUHU216HW,2013-09-11 16:01:00,
2013-09-11 11:05:00,76.9,61.5,29.97,West,270,9.2,9.2,59,0.00,,,0.00,WUHU216HW,2013-09-11 16:05:00,
2013-09-11 11:06:00,76.9,61.5,29.97,West,270,9.2,9.2,59,0.00,,,0.00,WUHU216HW,2013-09-11 16:06:00,
2013-09-11 11:10:00,76.9,61.5,29.97,West,270,9.2,9.2,59,0.00,,,0.00,WUHU216HW,2013-09-11 16:10:00,
2013-09-11 11:30:00,78.1,62.2,29.98,West,270,11.6,11.6,58,0.00,,,0.00,WUHU216HW,2013-09-11 16:30:00,
2013-09-11 11:35:00,78.1,61.7,29.98,NW,315,13.2,13.2,57,0.00,,,0.00,WUHU216HW,2013-09-11 16:35:00,
2013-09-11 11:36:00,78.1,61.7,29.98,NW,315,13.2,13.2,57,0.00,,,0.00,WUHU216HW,2013-09-11 16:36:00,
2013-09-11 11:40:00,78.1,61.7,29.98,NW,315,13.2,13.2,57,0.00,,,0.00,WUHU216HW,2013-09-11 16:40:00,
2013-09-11 12:00:00,78.8,61.8,29.98,WNW,293,9.8,9.8,56,0.00,,,0.00,WUHU216HW,2013-09-11 17:00:00,
2013-09-11 12:05:00,78.8,61.8,29.98,WNW,293,10.3,10.3,56,0.00,,,0.00,WUHU216HW,2013-09-11 17:05:00,
2013-09-11 12:06:00,78.8,61.8,29.98,WNW,293,10.3,10.3,56,0.00,,,0.00,WUHU216HW,2013-09-11 17:06:00,
2013-09-11 12:10:00,78.8,61.8,29.98,WNW,293,10.3,10.3,56,0.00,,,0.00,WUHU216HW,2013-09-11 17:10:00,
2013-09-11 12:30:00,79.0,60.9,29.99,NW,315,6.5,6.5,54,0.00,,,0.00,WUHU216HW,2013-09-11 17:30:00,
2013-09-11 12:31:00,79.0,60.9,29.99,NW,315,6.5,6.5,54,0.00,,,0.00,WUHU216HW,2013-09-11 17:31:00,
2013-09-11 12:35:00,79.0,60.9,29.99,NW,315,6.5,6.5,54,0.00,,,0.00,WUHU216HW,2013-09-11 17:35:00,
2013-09-11 12:36:00,79.0,60.9,29.99,NW,315,6.5,6.5,54,0.00,,,0.00,WUHU216HW,2013-09-11 17:36:00,
2013-09-11 12:37:00,79.0,60.9,29.99,NW,315,6.5,6.5,54,0.00,,,0.00,WUHU216HW,2013-09-11 17:37:00,
2013-09-11 12:40:00,79.0,60.9,29.99,NW,315,6.5,6.5,54,0.00,,,0.00,WUHU216HW,2013-09-11 17:40:00,
2013-09-11 13:00:00,80.3,56.4,29.99,North,0,6.3,6.3,44,0.00,,,0.00,WUHU216HW,2013-09-11 18:00:00,
2013-09-11 13:05:00,80.3,56.4,29.99,North,0,7.8,7.8,44,0.00,,,0.00,WUHU216HW,2013-09-11 18:05:00,
2013-09-11 13:06:00,80.3,56.4,29.99,North,0,7.8,7.8,44,0.00,,,0.00,WUHU216HW,2013-09-11 18:06:00,
2013-09-11 13:10:00,80.3,56.4,29.99,North,0,7.8,7.8,44,0.00,,,0.00,WUHU216HW,2013-09-11 18:10:00,
2013-09-11 13:30:00,80.6,53.4,29.99,NNW,338,6.7,6.7,39,0.00,,,0.00,WUHU216HW,2013-09-11 18:30:00,
2013-09-11 13:31:00,80.8,53.6,29.99,NNW,338,7.8,7.8,39,0.00,,,0.00,WUHU216HW,2013-09-11 18:31:00,
2013-09-11 13:35:00,80.8,53.6,29.99,NNW,338,7.8,7.8,39,0.00,,,0.00,WUHU216HW,2013-09-11 18:35:00,
2013-09-11 13:36:00,80.8,53.6,29.99,NNW,338,7.8,7.8,39,0.00,,,0.00,WUHU216HW,2013-09-11 18:36:00,
2013-09-11 13:38:00,80.8,53.6,29.99,NNW,338,7.8,7.8,39,0.00,,,0.00,WUHU216HW,2013-09-11 18:38:00,
2013-09-11 14:00:00,81.5,52.7,30.00,NW,315,11.6,11.6,37,0.00,,,0.00,WUHU216HW,2013-09-11 19:00:00,
2013-09-11 14:01:00,81.5,52.7,30.00,NW,306,7.4,11.6,37,0.00,,,0.00,WUHU216HW,2013-09-11 19:01:00,
2013-09-11 14:05:00,81.5,52.7,30.00,West,270,6.5,11.6,37,0.00,,,0.00,WUHU216HW,2013-09-11 19:05:00,
2013-09-11 14:06:00,81.5,52.7,30.00,West,270,6.5,11.6,37,0.00,,,0.00,WUHU216HW,2013-09-11 19:06:00,
2013-09-11 14:10:00,81.5,52.7,30.00,West,270,6.5,6.5,37,0.00,,,0.00,WUHU216HW,2013-09-11 19:10:00,
2013-09-11 14:30:00,81.2,50.0,30.00,NW,315,13.2,13.2,34,0.00,,,0.00,WUHU216HW,2013-09-11 19:30:00,
2013-09-11 14:31:00,81.2,50.8,30.00,NW,315,12.7,13.2,35,0.00,,,0.00,WUHU216HW,2013-09-11 19:31:00,
2013-09-11 14:35:00,81.2,50.8,30.00,NW,315,11.6,13.2,35,0.00,,,0.00,WUHU216HW,2013-09-11 19:35:00,
2013-09-11 14:36:00,81.2,50.8,30.00,NW,315,11.6,13.2,35,0.00,,,0.00,WUHU216HW,2013-09-11 19:36:00,
2013-09-11 14:37:00,81.2,50.8,30.00,NW,315,11.6,13.2,35,0.00,,,0.00,WUHU216HW,2013-09-11 19:37:00,
2013-09-11 14:40:00,81.2,50.8,30.00,NW,315,11.6,11.6,35,0.00,,,0.00,WUHU216HW,2013-09-11 19:40:00,
2013-09-11 15:00:00,81.5,51.1,30.00,NNW,338,8.5,8.5,35,0.00,,,0.00,WUHU216HW,2013-09-11 20:00:00,
2013-09-11 15:05:00,81.4,52.5,30.00,NNW,338,7.4,8.5,37,0.00,,,0.00,WUHU216HW,2013-09-11 20:05:00,
2013-09-11 15:10:00,81.4,52.5,30.00,NNW,338,7.4,8.5,37,0.00,,,0.00,WUHU216HW,2013-09-11 20:10:00,
2013-09-11 15:30:00,81.5,51.8,29.99,NW,315,10.3,10.3,36,0.00,,,0.00,WUHU216HW,2013-09-11 20:30:00,
2013-09-11 15:31:00,81.5,51.8,29.99,NW,315,10.3,10.3,36,0.00,,,0.00,WUHU216HW,2013-09-11 20:31:00,
2013-09-11 15:35:00,81.5,51.8,29.99,NW,315,10.3,10.3,36,0.00,,,0.00,WUHU216HW,2013-09-11 20:35:00,
2013-09-11 15:36:00,81.5,51.8,29.99,NW,315,10.3,10.3,36,0.00,,,0.00,WUHU216HW,2013-09-11 20:36:00,
2013-09-11 16:00:00,80.3,52.3,30.00,NW,315,5.4,5.4,38,0.00,,,0.00,WUHU216HW,2013-09-11 21:00:00,
2013-09-11 16:05:00,80.3,52.3,30.00,NNW,338,6.9,6.9,38,0.00,,,0.00,WUHU216HW,2013-09-11 21:05:00,
2013-09-11 16:06:00,80.3,52.3,30.00,NNW,338,6.9,6.9,38,0.00,,,0.00,WUHU216HW,2013-09-11 21:06:00,
2013-09-11 16:10:00,80.3,52.3,30.00,NNW,338,6.9,6.9,38,0.00,,,0.00,WUHU216HW,2013-09-11 21:10:00,
2013-09-11 16:30:00,81.2,53.1,29.99,NNW,338,3.8,3.8,38,0.00,,,0.00,WUHU216HW,2013-09-11 21:30:00,
2013-09-11 16:31:00,81.4,53.3,29.99,NW,324,3.8,4.0,38,0.00,,,0.00,WUHU216HW,2013-09-11 21:31:00,
2013-09-11 16:35:00,81.4,53.3,29.99,NW,315,3.4,4.0,38,0.00,,,0.00,WUHU216HW,2013-09-11 21:35:00,
2013-09-11 16:36:00,81.4,53.3,29.99,NW,315,3.4,4.0,38,0.00,,,0.00,WUHU216HW,2013-09-11 21:36:00,
2013-09-11 16:37:00,81.4,53.3,29.99,NW,315,3.4,4.0,38,0.00,,,0.00,WUHU216HW,2013-09-11 21:37:00,
2013-09-11 16:40:00,81.4,53.3,29.99,NW,315,3.4,4.0,38,0.00,,,0.00,WUHU216HW,2013-09-11 21:40:00,
2013-09-11 17:00:00,81.7,52.8,29.99,North,0,8.3,8.3,37,0.00,,,0.00,WUHU216HW,2013-09-11 22:00:00,
2013-09-11 17:05:00,81.7,52.8,29.99,North,0,8.3,8.3,37,0.00,,,0.00,WUHU216HW,2013-09-11 22:05:00,
2013-09-11 17:06:00,81.7,52.8,29.99,North,0,8.3,8.3,37,0.00,,,0.00,WUHU216HW,2013-09-11 22:06:00,
2013-09-11 17:30:00,81.9,52.9,29.99,West,270,8.3,8.3,37,0.00,,,0.00,WUHU216HW,2013-09-11 22:30:00,
2013-09-11 17:35:00,81.9,52.9,29.99,West,270,8.3,8.3,37,0.00,,,0.00,WUHU216HW,2013-09-11 22:35:00,
2013-09-11 18:00:00,81.0,53.7,29.99,NW,315,7.4,7.4,39,0.00,,,0.00,WUHU216HW,2013-09-11 23:00:00,
2013-09-11 18:05:00,81.0,53.7,29.99,NW,315,7.4,7.4,39,0.00,,,0.00,WUHU216HW,2013-09-11 23:05:00,
2013-09-11 18:06:00,81.0,53.7,29.99,NW,315,7.4,7.4,39,0.00,,,0.00,WUHU216HW,2013-09-11 23:06:00,
2013-09-11 18:30:00,80.5,54.0,29.98,NW,315,4.0,4.0,40,0.00,,,0.00,WUHU216HW,2013-09-11 23:30:00,
2013-09-11 18:31:00,80.5,54.0,29.98,NW,315,4.0,4.0,40,0.00,,,0.00,WUHU216HW,2013-09-11 23:31:00,
2013-09-11 18:35:00,80.5,54.0,29.98,NW,315,4.0,4.0,40,0.00,,,0.00,WUHU216HW,2013-09-11 23:35:00,
2013-09-11 18:36:00,80.5,54.0,29.98,NW,315,4.0,4.0,40,0.00,,,0.00,WUHU216HW,2013-09-11 23:36:00,
2013-09-11 18:37:00,80.5,54.0,29.98,NW,315,4.0,4.0,40,0.00,,,0.00,WUHU216HW,2013-09-11 23:37:00,
2013-09-11 19:00:00,79.9,54.7,29.97,West,270,3.1,3.1,42,0.00,,,0.00,WUHU216HW,2013-09-12 00:00:00,
2013-09-11 19:05:00,79.9,54.7,29.97,West,270,3.1,3.1,42,0.00,,,0.00,WUHU216HW,2013-09-12 00:05:00,
2013-09-11 19:30:00,76.7,55.5,29.97,SW,225,0.4,0.4,48,0.00,,,0.00,WUHU216HW,2013-09-12 00:30:00,
2013-09-11 19:35:00,76.7,55.5,29.97,SW,225,0.4,0.4,48,0.00,,,0.00,WUHU216HW,2013-09-12 00:35:00,
2013-09-11 19:36:00,76.7,55.5,29.97,SW,225,0.4,0.4,48,0.00,,,0.00,WUHU216HW,2013-09-12 00:36:00,
2013-09-11 20:00:00,72.4,55.7,29.97,SSW,203,1.1,1.1,56,0.00,,,0.00,WUHU216HW,2013-09-12 01:00:00,
2013-09-11 20:05:00,72.4,55.7,29.97,SSW,203,1.1,1.1,56,0.00,,,0.00,WUHU216HW,2013-09-12 01:05:00,
2013-09-11 20:06:00,72.4,55.7,29.97,SSW,203,1.1,1.1,56,0.00,,,0.00,WUHU216HW,2013-09-12 01:06:00,
2013-09-11 20:30:00,70.7,56.3,29.98,WSW,248,1.6,1.6,60,0.00,,,0.00,WUHU216HW,2013-09-12 01:30:00,
2013-09-11 20:35:00,70.7,56.3,29.98,WSW,248,1.6,1.6,60,0.00,,,0.00,WUHU216HW,2013-09-12 01:35:00,
2013-09-11 20:36:00,70.7,56.3,29.98,WSW,248,1.6,1.6,60,0.00,,,0.00,WUHU216HW,2013-09-12 01:36:00,
2013-09-11 20:37:00,70.7,56.3,29.98,WSW,248,1.6,1.6,60,0.00,,,0.00,WUHU216HW,2013-09-12 01:37:00,
2013-09-11 21:00:00,72.5,54.8,29.99,West,270,4.7,4.7,54,0.00,,,0.00,WUHU216HW,2013-09-12 02:00:00,
2013-09-11 21:05:00,72.5,54.8,29.99,West,270,4.7,4.7,54,0.00,,,0.00,WUHU216HW,2013-09-12 02:05:00,
2013-09-11 21:06:00,72.5,54.8,29.99,West,270,4.7,4.7,54,0.00,,,0.00,WUHU216HW,2013-09-12 02:06:00,
2013-09-11 21:30:00,71.1,55.1,30.01,West,270,9.2,9.2,57,0.00,,,0.00,WUHU216HW,2013-09-12 02:30:00,
2013-09-11 21:35:00,71.1,55.1,30.01,WNW,301,7.2,9.6,57,0.00,,,0.00,WUHU216HW,2013-09-12 02:35:00,
2013-09-11 21:36:00,71.1,55.1,30.01,NW,315,6.9,9.6,57,0.00,,,0.00,WUHU216HW,2013-09-12 02:36:00,
2013-09-11 21:40:00,71.1,55.1,30.01,NW,315,6.9,9.6,57,0.00,,,0.00,WUHU216HW,2013-09-12 02:40:00,
2013-09-11 21:41:00,71.1,55.1,30.01,NW,315,6.9,9.4,57,0.00,,,0.00,WUHU216HW,2013-09-12 02:41:00,
2013-09-11 22:00:00,69.8,53.5,30.02,NW,315,6.9,6.9,56,0.00,,,0.00,WUHU216HW,2013-09-12 03:00:00,
2013-09-11 22:01:00,69.8,52.9,30.02,WNW,293,10.7,10.7,55,0.00,,,0.00,WUHU216HW,2013-09-12 03:01:00,
2013-09-11 22:05:00,69.8,52.9,30.02,WNW,293,10.7,10.7,55,0.00,,,0.00,WUHU216HW,2013-09-12 03:05:00,
2013-09-11 22:06:00,69.8,52.9,30.02,WNW,293,10.7,10.7,55,0.00,,,0.00,WUHU216HW,2013-09-12 03:06:00,
2013-09-11 22:10:00,69.8,52.9,30.02,WNW,293,10.7,10.7,55,0.00,,,0.00,WUHU216HW,2013-09-12 03:10:00,
2013-09-11 22:30:00,68.4,52.0,30.02,West,270,3.4,3.4,56,0.00,,,0.00,WUHU216HW,2013-09-12 03:30:00,
2013-09-11 22:35:00,68.4,52.0,30.02,West,270,4.7,4.7,56,0.00,,,0.00,WUHU216HW,2013-09-12 03:35:00,
2013-09-11 22:36:00,68.4,52.0,30.02,West,270,4.7,4.7,56,0.00,,,0.00,WUHU216HW,2013-09-12 03:36:00,
2013-09-11 22:40:00,68.4,52.0,30.02,West,270,4.7,4.7,56,0.00,,,0.00,WUHU216HW,2013-09-12 03:40:00,
2013-09-11 23:00:00,67.5,51.2,30.03,NW,315,6.9,6.9,56,0.00,,,0.00,WUHU216HW,2013-09-12 04:00:00,
2013-09-11 23:01:00,67.5,51.2,30.04,NW,315,6.4,6.9,56,0.00,,,0.00,WUHU216HW,2013-09-12 04:01:00,
2013-09-11 23:02:00,67.5,51.2,30.04,NW,315,5.4,6.9,56,0.00,,,0.00,WUHU216HW,2013-09-12 04:02:00,
2013-09-11 23:06:00,67.5,51.2,30.04,NW,315,5.4,6.9,56,0.00,,,0.00,WUHU216HW,2013-09-12 04:06:00,
2013-09-11 23:07:00,67.5,51.2,30.04,NW,315,5.4,6.9,56,0.00,,,0.00,WUHU216HW,2013-09-12 04:07:00,
2013-09-11 23:08:00,67.5,51.2,30.04,NW,315,5.4,6.9,56,0.00,,,0.00,WUHU216HW,2013-09-12 04:08:00,
2013-09-11 23:30:00,65.9,51.2,30.04,NNW,338,4.7,4.7,59,0.00,,,0.00,WUHU216HW,2013-09-12 04:30:00,
2013-09-11 23:35:00,65.9,51.2,30.04,NNW,338,4.7,4.7,59,0.00,,,0.00,WUHU216HW,2013-09-12 04:35:00,
2013-09-11 23:36:00,65.9,51.2,30.04,NNW,338,4.7,4.7,59,0.00,,,0.00,WUHU216HW,2013-09-12 04:36:00,